Time;durP1;ratioP1;P1;durP2;ratioP2;P2;SDS_P1;SDS_P2;PMS_P1;PMS_P2;Temp;Humidity;BMP_temperature;BMP_pressure;BME280_temperature;BME280_humidity;BME280_pressure;Samples;Min_cycle;Max_cycle;Signal;HPM_P1;HPM_P2
2023/04/16 00:01:18;;;;;;;29.27;17.15;;;;;;;7.36;100.00;101781.41;10255913;28;20457;-70
2023/04/16 00:06:15;;;;;;;28.33;18.02;;;;;;;7.25;100.00;101777.03;10261861;28;20111;-69
2023/04/16 00:11:11;;;;;;;25.98;17.00;;;;;;;7.12;100.00;101786.53;10267282;28;20041;-70
2023/04/16 00:16:08;;;;;;;26.05;16.00;;;;;;;7.21;100.00;101777.84;10254186;28;20447;-72
2023/04/16 00:21:05;;;;;;;26.15;16.98;;;;;;;7.15;100.00;101775.13;10248242;28;20663;-72
2023/04/16 00:26:02;;;;;;;28.17;16.40;;;;;;;6.98;100.00;101771.00;10258316;28;20045;-71
2023/04/16 00:31:00;;;;;;;25.90;16.38;;;;;;;6.93;100.00;101778.03;10267743;28;20076;-70
2023/04/16 00:35:57;;;;;;;26.98;15.82;;;;;;;7.05;100.00;101774.28;10267445;28;20054;-70
2023/04/16 00:40:53;;;;;;;23.33;16.25;;;;;;;6.93;100.00;101771.78;10252024;28;20075;-70
2023/04/16 00:45:51;;;;;;;25.15;14.55;;;;;;;6.84;100.00;101778.84;10261990;28;20045;-71
2023/04/16 00:51:02;;;;;;;20.80;14.90;;;;;;;7.02;100.00;101780.25;10263512;28;20068;-72
2023/04/16 00:56:38;;;;;;;21.55;15.57;;;;;;;7.10;100.00;101777.00;10225330;28;20506;-70
2023/04/16 01:01:35;;;;;;;27.05;15.48;;;;;;;7.02;100.00;101770.19;10265466;28;20406;-71
2023/04/16 01:06:31;;;;;;;26.75;17.13;;;;;;;7.09;100.00;101764.50;10266817;28;20045;-71
2023/04/16 01:11:28;;;;;;;24.52;16.35;;;;;;;7.09;100.00;101772.66;10271432;28;20045;-69
2023/04/16 01:16:25;;;;;;;22.63;16.27;;;;;;;7.20;100.00;101774.31;10255465;28;20068;-75
2023/04/16 01:21:23;;;;;;;18.83;14.15;;;;;;;7.42;100.00;101773.25;10260758;28;20053;-76
2023/04/16 01:26:21;;;;;;;24.80;16.95;;;;;;;7.36;100.00;101781.41;10251586;28;20426;-69
2023/04/16 01:31:17;;;;;;;25.98;15.27;;;;;;;7.49;100.00;101790.13;10253366;28;20045;-70
2023/04/16 01:36:14;;;;;;;19.45;14.70;;;;;;;7.62;100.00;101795.03;10258494;28;20057;-70
2023/04/16 01:41:10;;;;;;;25.90;15.13;;;;;;;7.49;100.00;101795.56;10268596;28;20064;-70
2023/04/16 01:46:13;;;;;;;21.55;15.07;;;;;;;7.48;100.00;101804.84;10257809;28;20059;-71
2023/04/16 01:51:10;;;;;;;17.98;12.93;;;;;;;7.56;100.00;101809.72;10251808;28;20075;-71
2023/04/16 01:56:07;;;;;;;21.40;14.52;;;;;;;7.47;100.00;101809.47;10253673;28;20048;-70
2023/04/16 02:01:04;;;;;;;19.92;15.15;;;;;;;7.52;100.00;101811.34;10259601;28;20068;-70
2023/04/16 02:06:02;;;;;;;25.80;15.63;;;;;;;7.38;100.00;101817.34;10259650;28;20052;-71
2023/04/16 02:11:01;;;;;;;22.65;14.40;;;;;;;7.66;100.00;101823.38;10263699;28;20057;-72
2023/04/16 02:16:02;;;;;;;;;;;;;;;7.45;100.00;101832.56;10259414;28;20052;-72
2023/04/16 02:21:01;;;;;;;23.15;14.00;;;;;;;7.47;100.00;101830.41;10248378;28;19924;-71
2023/04/16 02:25:57;;;;;;;21.00;14.05;;;;;;;7.46;100.00;101834.22;10251644;28;20071;-70
2023/04/16 02:30:54;;;;;;;19.90;14.25;;;;;;;7.58;100.00;101826.59;10256038;28;20073;-69
2023/04/16 02:35:50;;;;;;;18.80;11.88;;;;;;;7.59;100.00;101823.63;10254619;28;20791;-70
2023/04/16 02:40:47;;;;;;;19.77;13.57;;;;;;;7.53;100.00;101829.34;10244532;28;20525;-70
2023/04/16 02:45:43;;;;;;;17.85;13.20;;;;;;;7.57;100.00;101831.25;10259322;28;20045;-70
2023/04/16 02:50:40;;;;;;;21.05;14.90;;;;;;;7.53;100.00;101834.78;10264901;28;20529;-69
2023/04/16 02:55:36;;;;;;;24.83;14.05;;;;;;;7.68;100.00;101833.97;10257843;28;20059;-70
2023/04/16 03:00:33;;;;;;;18.92;14.40;;;;;;;7.55;100.00;101843.50;10254780;28;20098;-69
2023/04/16 03:05:29;;;;;;;21.98;15.85;;;;;;;7.72;100.00;101841.31;10263217;28;20049;-69
2023/04/16 03:10:26;;;;;;;24.80;15.15;;;;;;;7.48;100.00;101845.66;10259570;28;20409;-70
2023/04/16 03:15:23;;;;;;;20.42;13.98;;;;;;;7.52;100.00;101849.44;10260359;28;20563;-70
2023/04/16 03:20:19;;;;;;;20.80;15.27;;;;;;;7.53;100.00;101846.47;10262595;28;20053;-68
2023/04/16 03:25:16;;;;;;;19.58;13.63;;;;;;;7.63;100.00;101848.38;10247992;28;20045;-69
2023/04/16 03:30:13;;;;;;;21.38;15.10;;;;;;;7.61;100.00;101847.03;10250950;28;20052;-70
2023/04/16 03:35:10;;;;;;;20.45;14.98;;;;;;;7.66;100.00;101850.59;10260547;28;20152;-69
2023/04/16 03:40:07;;;;;;;19.08;14.43;;;;;;;7.82;100.00;101858.75;10265456;28;20071;-70
2023/04/16 03:45:04;;;;;;;21.60;15.85;;;;;;;7.59;100.00;101853.56;10267354;28;20049;-70
2023/04/16 03:50:00;;;;;;;23.90;18.05;;;;;;;7.72;100.00;101860.38;10258412;28;20049;-69
2023/04/16 03:54:57;;;;;;;24.75;16.17;;;;;;;7.64;100.00;101860.94;10266029;28;20041;-69
2023/04/16 03:59:53;;;;;;;21.23;15.60;;;;;;;7.63;100.00;101853.81;10257127;28;20111;-70
2023/04/16 04:04:50;;;;;;;23.10;16.35;;;;;;;7.70;100.00;101859.00;10258741;28;20095;-69
2023/04/16 04:09:46;;;;;;;24.85;16.20;;;;;;;7.82;100.00;101858.75;10264857;28;20140;-69
2023/04/16 04:14:43;;;;;;;22.15;17.30;;;;;;;7.81;100.00;101857.94;10250497;28;20045;-70
2023/04/16 04:19:39;;;;;;;23.73;17.02;;;;;;;7.76;100.00;101853.31;10261443;28;20511;-69
2023/04/16 04:24:51;;;;;;;21.73;16.45;;;;;;;7.79;100.00;101860.91;10263111;28;20049;-74
2023/04/16 04:29:49;;;;;;;24.50;16.83;;;;;;;7.82;100.00;101873.22;10256293;28;20144;-73
2023/04/16 04:34:47;;;;;;;25.52;17.65;;;;;;;7.87;100.00;101883.28;10247250;28;20054;-73
2023/04/16 04:39:48;;;;;;;23.25;15.93;;;;;;;7.91;100.00;101889.81;10251567;28;20087;-73
2023/04/16 04:44:46;;;;;;;22.70;15.82;;;;;;;7.74;100.00;101879.97;10254068;28;20056;-71
2023/04/16 04:49:42;;;;;;;24.10;17.73;;;;;;;7.75;100.00;101881.63;10251152;28;20128;-72
2023/04/16 04:54:40;;;;;;;26.65;18.15;;;;;;;7.80;100.00;101884.34;10252904;28;20764;-71
2023/04/16 05:00:21;;;;;;;21.13;14.95;;;;;;;7.83;100.00;101887.63;10251743;28;20644;-73
2023/04/16 05:05:43;;;;;;;23.33;16.25;;;;;;;7.89;100.00;101881.91;10256279;28;20045;-72
2023/04/16 05:10:39;;;;;;;23.83;15.85;;;;;;;7.78;100.00;101889.25;10259868;28;20077;-72
2023/04/16 05:15:36;;;;;;;25.98;16.88;;;;;;;7.91;100.00;101887.06;10245626;28;20088;-72
2023/04/16 05:20:33;;;;;;;21.90;16.85;;;;;;;7.86;100.00;101897.97;10259372;28;20132;-73
2023/04/16 05:25:31;;;;;;;22.48;17.48;;;;;;;7.96;100.00;101897.97;10263393;28;20056;-73
2023/04/16 05:30:28;;;;;;;26.45;18.40;;;;;;;7.97;100.00;101905.06;10257157;28;20132;-73
2023/04/16 05:35:26;;;;;;;22.63;15.40;;;;;;;7.99;100.00;101902.91;10243437;28;20059;-73
2023/04/16 05:40:25;;;;;;;30.98;18.48;;;;;;;8.13;100.00;101924.97;10245419;28;20468;-73
2023/04/16 05:45:22;;;;;;;23.75;16.15;;;;;;;8.16;100.00;101930.69;10245217;28;20554;-74
2023/04/16 05:50:19;;;;;;;25.20;16.30;;;;;;;8.08;100.00;101933.94;10252474;28;20128;-73
2023/04/16 05:55:31;;;;;;;25.80;17.65;;;;;;;8.30;100.00;101941.84;10254117;28;20042;-72
2023/04/16 06:00:27;;;;;;;22.58;15.82;;;;;;;8.38;100.00;101943.22;10248668;28;20057;-72
2023/04/16 06:05:28;;;;;;;23.67;16.63;;;;;;;8.31;100.00;101942.66;10251921;28;20110;-75
2023/04/16 06:10:52;;;;;;;28.40;18.60;;;;;;;8.47;100.00;101947.06;10257270;28;20077;-74
2023/04/16 06:15:59;;;;;;;25.80;17.10;;;;;;;8.35;100.00;101950.03;10247730;28;20173;-74
2023/04/16 06:20:58;;;;;;;21.17;16.05;;;;;;;8.54;100.00;101950.34;10254231;28;20159;-70
2023/04/16 06:25:54;;;;;;;26.05;17.08;;;;;;;8.59;100.00;101961.22;10255198;28;20056;-70
2023/04/16 06:30:51;;;;;;;24.70;17.63;;;;;;;8.41;100.00;101959.88;10252944;28;20052;-70
2023/04/16 06:35:47;;;;;;;22.80;15.90;;;;;;;8.50;100.00;101968.31;10261335;28;20057;-73
2023/04/16 06:40:44;;;;;;;24.33;17.02;;;;;;;8.64;100.00;101969.41;10262353;28;20727;-75
2023/04/16 06:45:42;;;;;;;25.65;17.20;;;;;;;8.34;100.00;101975.66;10257222;28;20053;-74
2023/04/16 06:50:40;;;;;;;21.90;17.05;;;;;;;8.44;100.00;101980.31;10253112;28;20053;-72
2023/04/16 06:55:36;;;;;;;23.65;16.70;;;;;;;8.40;100.00;101979.22;10257642;28;20571;-72
2023/04/16 07:00:33;;;;;;;25.02;16.80;;;;;;;8.49;100.00;101977.56;10248577;28;20118;-70
2023/04/16 07:05:30;;;;;;;26.52;16.20;;;;;;;8.72;100.00;101992.56;10264708;28;20135;-71
2023/04/16 07:10:26;;;;;;;22.65;16.15;;;;;;;8.77;100.00;101994.47;10248399;28;20134;-71
2023/04/16 07:15:24;;;;;;;24.95;17.05;;;;;;;8.89;100.00;101989.56;10255638;28;20054;-74
2023/04/16 07:20:22;;;;;;;23.30;16.08;;;;;;;8.98;100.00;101993.38;10244983;28;20632;-74
2023/04/16 07:25:20;;;;;;;24.17;15.00;;;;;;;8.94;100.00;102005.91;10248774;28;20148;-74
2023/04/16 07:30:18;;;;;;;23.08;15.93;;;;;;;9.06;100.00;101995.53;10264314;28;20088;-74
2023/04/16 07:35:16;;;;;;;28.77;16.33;;;;;;;8.97;100.00;102019.00;10256842;28;20067;-75
2023/04/16 07:40:14;;;;;;;21.63;15.63;;;;;;;9.01;100.00;102011.91;10238592;28;20155;-74
2023/04/16 07:45:12;;;;;;;21.77;15.13;;;;;;;8.85;100.00;102011.09;10244857;28;20130;-76
2023/04/16 07:50:10;;;;;;;21.38;14.30;;;;;;;9.00;100.00;102015.72;10257603;28;20079;-77
2023/04/16 07:55:08;;;;;;;18.98;14.52;;;;;;;9.08;100.00;102021.72;10252832;28;20084;-74
2023/04/16 08:00:05;;;;;;;21.33;15.38;;;;;;;8.93;100.00;102031.53;10253128;28;20106;-74
2023/04/16 08:05:02;;;;;;;21.90;15.52;;;;;;;9.02;100.00;102029.09;10251398;28;20110;-70
2023/04/16 08:09:59;;;;;;;19.23;13.85;;;;;;;8.92;100.00;102029.91;10266731;28;20703;-70
2023/04/16 08:14:55;;;;;;;19.35;13.90;;;;;;;9.23;100.00;102024.41;10234009;28;20108;-70
2023/04/16 08:19:52;;;;;;;22.08;15.85;;;;;;;9.14;100.00;102032.31;10242638;28;20430;-70
2023/04/16 08:24:48;;;;;;;20.08;15.40;;;;;;;9.40;100.00;102044.03;10247305;28;20076;-71
2023/04/16 08:29:45;;;;;;;19.88;14.55;;;;;;;9.32;100.00;102055.50;10247384;28;20429;-70
2023/04/16 08:34:41;;;;;;;23.42;15.07;;;;;;;9.22;100.00;102058.25;10244395;28;20558;-71
2023/04/16 08:39:38;;;;;;;21.65;14.85;;;;;;;9.38;100.00;102054.41;10250379;28;20053;-71
2023/04/16 08:44:40;;;;;;;19.75;14.10;;;;;;;9.70;100.00;102066.88;10242948;28;20068;-70
2023/04/16 08:49:42;;;;;;;20.27;14.38;;;;;;;9.68;100.00;102064.41;10255574;28;20127;-70
2023/04/16 08:55:05;;;;;;;20.92;14.93;;;;;;;9.83;100.00;102071.72;10240440;28;20407;-70
2023/04/16 09:00:02;;;;;;;17.98;13.32;;;;;;;10.07;100.00;102068.31;10242181;28;20049;-70
2023/04/16 09:05:01;;;;;;;20.42;14.35;;;;;;;9.88;100.00;102068.13;10236457;28;20143;-69
2023/04/16 09:09:59;;;;;;;19.42;13.65;;;;;;;10.34;100.00;102069.84;10238273;28;20061;-69
2023/04/16 09:14:56;;;;;;;20.13;14.27;;;;;;;10.37;100.00;102077.47;10243176;28;20076;-69
2023/04/16 09:19:53;;;;;;;16.52;12.43;;;;;;;10.97;100.00;102072.66;10251774;28;20083;-69
2023/04/16 09:24:50;;;;;;;15.82;12.75;;;;;;;11.19;100.00;102082.31;10256464;28;20094;-69
2023/04/16 09:29:46;;;;;;;16.92;13.93;;;;;;;11.23;100.00;102091.56;10252728;28;20088;-69
2023/04/16 09:35:00;;;;;;;18.40;15.02;;;;;;;11.33;100.00;102091.50;10249351;28;20135;-69
2023/04/16 09:40:03;;;;;;;17.73;13.60;;;;;;;11.24;100.00;102104.97;10245389;28;20063;-69
2023/04/16 09:45:00;;;;;;;17.55;13.65;;;;;;;11.46;100.00;102112.69;10261516;28;20083;-69
2023/04/16 09:50:01;;;;;;;18.80;13.45;;;;;;;11.05;100.00;102117.75;10261142;28;20114;-69
2023/04/16 09:54:58;;;;;;;17.95;14.38;;;;;;;10.53;100.00;102125.50;10250049;28;20264;-69
2023/04/16 10:00:07;;;;;;;14.80;12.15;;;;;;;10.87;100.00;102122.00;10257610;28;20103;-70
2023/04/16 10:05:05;;;;;;;17.90;13.73;;;;;;;10.77;100.00;102116.59;10255713;28;20525;-71
2023/04/16 10:10:03;;;;;;;17.02;13.00;;;;;;;11.19;100.00;102124.19;10254150;28;21227;-70
2023/04/16 10:15:00;;;;;;;19.08;12.32;;;;;;;11.23;100.00;102130.75;10260155;28;20545;-69
2023/04/16 10:20:00;;;;;;;18.65;13.82;;;;;;;11.27;100.00;102130.97;10256187;28;20056;-68
2023/04/16 10:24:57;;;;;;;19.63;14.88;;;;;;;10.76;100.00;102134.13;10253940;28;20053;-69
2023/04/16 10:29:55;;;;;;;21.27;14.05;;;;;;;10.92;100.00;102139.19;10256117;28;20052;-69
2023/04/16 10:34:51;;;;;;;15.55;12.68;;;;;;;11.14;100.00;102138.75;10261352;28;20057;-69
2023/04/16 10:39:51;;;;;;;14.40;12.90;;;;;;;11.30;100.00;102142.16;10251391;28;20525;-69
2023/04/16 10:44:47;;;;;;;17.20;12.90;;;;;;;11.61;100.00;102152.00;10258466;28;20175;-69
2023/04/16 10:49:47;;;;;;;17.48;13.85;;;;;;;11.54;100.00;102152.34;10255797;28;20511;-70
2023/04/16 10:54:45;;;;;;;15.07;11.98;;;;;;;11.67;100.00;102151.63;10255621;28;20494;-69
2023/04/16 10:59:43;;;;;;;18.02;14.48;;;;;;;11.15;100.00;102159.53;10255386;28;20671;-69
2023/04/16 11:04:43;;;;;;;18.95;13.82;;;;;;;11.49;100.00;102152.41;10255903;28;20059;-69
2023/04/16 11:10:01;;;;;;;18.60;14.82;;;;;;;11.29;100.00;102162.44;10256704;28;20671;-69
2023/04/16 11:15:06;;;;;;;18.17;13.10;;;;;;;11.28;100.00;102162.69;10254966;28;20057;-69
2023/04/16 11:20:05;;;;;;;20.42;13.93;;;;;;;11.31;100.00;102164.88;10249200;28;20115;-71
2023/04/16 11:25:23;;;;;;;20.80;13.13;;;;;;;10.87;100.00;102176.72;10262735;28;20114;-69
2023/04/16 11:30:32;;;;;;;15.55;13.23;;;;;;;11.10;100.00;102176.00;10240669;28;20048;-68
2023/04/16 11:35:29;;;;;;;16.20;12.90;;;;;;;11.13;100.00;102169.13;10255762;28;20754;-68
2023/04/16 11:40:30;;;;;;;13.25;10.88;;;;;;;11.03;100.00;102170.03;10247774;28;20123;-68
2023/04/16 11:45:27;;;;;;;13.10;11.15;;;;;;;11.32;100.00;102171.97;10241982;28;20136;-68
2023/04/16 11:50:26;;;;;;;14.40;11.43;;;;;;;11.23;100.00;102179.19;10256291;28;20124;-68
2023/04/16 11:55:23;;;;;;;15.23;11.65;;;;;;;11.24;100.00;102180.81;10245776;28;20049;-68
2023/04/16 12:00:21;;;;;;;16.08;12.75;;;;;;;10.83;100.00;102181.13;10257348;28;20084;-69
2023/04/16 12:05:34;;;;;;;15.02;12.55;;;;;;;10.82;100.00;102179.50;10245360;28;20235;-69
2023/04/16 12:10:53;;;;;;;20.05;13.57;;;;;;;11.06;100.00;102185.88;10241866;28;20479;-70
2023/04/16 12:15:51;;;;;;;17.85;13.10;;;;;;;10.61;100.00;102190.56;10251538;28;20523;-69
2023/04/16 12:20:49;;;;;;;18.05;13.77;;;;;;;10.51;100.00;102198.81;10241943;28;20454;-70
2023/04/16 12:25:48;;;;;;;16.42;12.23;;;;;;;10.72;100.00;102205.81;10257225;28;20064;-69
2023/04/16 12:30:51;;;;;;;16.77;12.05;;;;;;;10.59;100.00;102200.97;10249337;28;20148;-69
2023/04/16 12:35:48;;;;;;;13.70;12.13;;;;;;;10.89;100.00;102201.88;10254665;28;20052;-69
2023/04/16 12:40:45;;;;;;;14.40;11.38;;;;;;;11.00;100.00;102202.63;10247891;28;20068;-70
2023/04/16 12:45:41;;;;;;;14.98;12.57;;;;;;;10.83;100.00;102203.00;10259152;28;20052;-69
2023/04/16 12:50:38;;;;;;;16.73;13.30;;;;;;;10.66;100.00;102193.25;10247452;28;20156;-70
2023/04/16 12:55:35;;;;;;;19.10;12.80;;;;;;;11.09;100.00;102196.28;10242553;28;20462;-69
2023/04/16 13:00:31;;;;;;;16.40;12.60;;;;;;;10.87;100.00;102198.63;10265433;28;20091;-69
2023/04/16 13:05:28;;;;;;;15.35;12.43;;;;;;;10.94;100.00;102191.72;10249977;28;20079;-69
2023/04/16 13:10:26;;;;;;;16.38;12.85;;;;;;;11.11;100.00;102198.72;10248441;28;20059;-69
2023/04/16 13:15:23;;;;;;;20.90;13.93;;;;;;;11.13;100.00;102205.53;10263477;28;20051;-69
2023/04/16 13:20:19;;;;;;;19.33;13.60;;;;;;;11.15;100.00;102206.06;10250710;28;21151;-69
2023/04/16 13:25:19;;;;;;;17.02;13.00;;;;;;;10.52;100.00;102219.59;10235781;28;20096;-68
2023/04/16 13:30:15;;;;;;;16.90;13.80;;;;;;;10.90;100.00;102219.94;10240262;28;20053;-70
2023/04/16 13:35:12;;;;;;;18.17;13.60;;;;;;;11.01;100.00;102216.03;10249078;28;20055;-68
2023/04/16 13:40:08;;;;;;;16.90;14.18;;;;;;;10.92;100.00;102228.69;10253621;28;20049;-68
2023/04/16 13:45:05;;;;;;;16.92;12.60;;;;;;;11.02;100.00;102217.66;10251470;28;20079;-68
2023/04/16 13:50:02;;;;;;;13.48;11.20;;;;;;;10.95;100.00;102212.53;10252336;28;20057;-70
2023/04/16 13:54:58;;;;;;;15.25;13.02;;;;;;;11.03;100.00;102208.34;10245398;28;20555;-68
2023/04/16 13:59:56;;;;;;;17.60;13.30;;;;;;;11.22;100.00;102204.94;10263354;28;20057;-68
2023/04/16 14:04:53;;;;;;;16.98;14.85;;;;;;;11.34;100.00;102208.13;10248599;28;20055;-67
2023/04/16 14:09:49;;;;;;;20.45;14.45;;;;;;;11.34;100.00;102208.13;10244883;28;20080;-68
2023/04/16 14:14:46;;;;;;;17.70;13.75;;;;;;;11.11;100.00;102220.59;10256787;28;20430;-68
2023/04/16 14:19:42;;;;;;;18.90;13.15;;;;;;;11.21;100.00;102219.72;10256791;28;20077;-68
2023/04/16 14:24:38;;;;;;;15.38;12.77;;;;;;;11.38;100.00;102217.41;10264291;28;20052;-69
2023/04/16 14:29:35;;;;;;;20.08;15.40;;;;;;;10.91;100.00;102210.63;10248696;28;20053;-69
2023/04/16 14:34:31;;;;;;;17.05;13.70;;;;;;;11.17;100.00;102224.94;10252005;28;20571;-69
2023/04/16 14:39:28;;;;;;;20.70;13.90;;;;;;;11.26;100.00;102216.97;10255328;28;20052;-69
2023/04/16 14:44:25;;;;;;;14.77;12.88;;;;;;;11.13;100.00;102216.47;10256281;28;20403;-69
2023/04/16 14:49:22;;;;;;;19.25;14.02;;;;;;;11.27;100.00;102213.09;10253619;28;20049;-69
2023/04/16 14:54:19;;;;;;;18.38;15.02;;;;;;;11.20;100.00;102224.38;10260863;28;20111;-68
2023/04/16 14:59:15;;;;;;;16.70;13.77;;;;;;;11.27;100.00;102222.13;10257615;28;20063;-67
2023/04/16 15:04:12;;;;;;;18.13;14.40;;;;;;;11.23;100.00;102225.72;10257859;28;20561;-68
2023/04/16 15:09:08;;;;;;;17.83;15.02;;;;;;;11.32;100.00;102229.47;10251956;28;20141;-68
2023/04/16 15:14:05;;;;;;;22.85;15.90;;;;;;;11.22;100.00;102221.38;10257622;28;20288;-68
2023/04/16 15:19:02;;;;;;;18.10;14.77;;;;;;;10.98;100.00;102227.56;10266824;28;20045;-68
2023/04/16 15:24:00;;;;;;;20.15;15.30;;;;;;;11.04;100.00;102222.84;10262705;28;20111;-68
2023/04/16 15:28:57;;;;;;;20.08;14.57;;;;;;;11.15;100.00;102227.97;10263400;28;20110;-69
2023/04/16 15:33:54;;;;;;;19.75;15.05;;;;;;;10.88;100.00;102233.88;10260312;28;20052;-68
2023/04/16 15:38:51;;;;;;;20.15;15.30;;;;;;;10.83;100.00;102235.84;10262878;28;20473;-68
2023/04/16 15:43:48;;;;;;;20.83;15.48;;;;;;;10.87;100.00;102239.66;10261992;28;20080;-67
2023/04/16 15:48:44;;;;;;;19.50;14.65;;;;;;;10.84;100.00;102232.03;10260464;28;20049;-68
2023/04/16 15:53:43;;;;;;;21.80;15.90;;;;;;;10.97;100.00;102236.03;10244618;28;20060;-69
2023/04/16 15:58:40;;;;;;;18.92;15.00;;;;;;;10.85;100.00;102241.84;10259991;28;20499;-68
2023/04/16 16:03:36;;;;;;;18.67;15.80;;;;;;;10.78;100.00;102244.09;10258593;28;20053;-68
2023/04/16 16:08:35;;;;;;;17.58;14.25;;;;;;;10.89;100.00;102249.22;10263474;28;20048;-67
2023/04/16 16:13:32;;;;;;;19.25;15.77;;;;;;;10.97;100.00;102249.72;10265397;28;20055;-67
2023/04/16 16:18:29;;;;;;;19.70;15.98;;;;;;;10.75;100.00;102256.41;10251553;28;20049;-67
2023/04/16 16:23:25;;;;;;;19.52;16.10;;;;;;;10.96;100.00;102257.13;10260240;28;20160;-67
2023/04/16 16:28:23;;;;;;;22.42;17.40;;;;;;;10.76;100.00;102251.75;10258408;28;20857;-67
2023/04/16 16:33:20;;;;;;;20.63;14.98;;;;;;;10.68;100.00;102245.78;10259412;28;20056;-68
2023/04/16 16:38:16;;;;;;;20.40;15.27;;;;;;;10.56;100.00;102248.03;10258977;28;20507;-68
2023/04/16 16:43:13;;;;;;;17.88;14.52;;;;;;;10.48;100.00;102254.06;10255445;28;20142;-68
2023/04/16 16:48:09;;;;;;;22.70;15.77;;;;;;;10.46;100.00;102248.06;10260864;28;20044;-67
2023/04/16 16:53:06;;;;;;;19.65;15.48;;;;;;;10.36;100.00;102253.56;10254812;28;20125;-67
2023/04/16 16:58:02;;;;;;;16.85;13.80;;;;;;;10.41;100.00;102261.75;10252195;28;20515;-67
2023/04/16 17:02:59;;;;;;;18.38;14.15;;;;;;;10.53;100.00;102254.03;10253604;28;20053;-67
2023/04/16 17:07:56;;;;;;;19.33;14.52;;;;;;;10.56;100.00;102264.44;10253480;28;20135;-67
2023/04/16 17:12:53;;;;;;;22.05;15.10;;;;;;;10.41;100.00;102264.47;10245688;28;20503;-68
2023/04/16 17:17:49;;;;;;;19.77;15.48;;;;;;;10.37;100.00;102277.06;10253470;28;20500;-68
2023/04/16 17:22:46;;;;;;;18.98;16.02;;;;;;;10.07;100.00;102289.69;10251636;28;20164;-68
2023/04/16 17:27:42;;;;;;;17.50;13.60;;;;;;;10.29;100.00;102279.28;10263589;28;20041;-73
2023/04/16 17:32:39;;;;;;;19.35;15.23;;;;;;;10.28;100.00;102291.31;10241854;28;20683;-73
2023/04/16 17:37:35;;;;;;;20.35;14.43;;;;;;;10.29;100.00;102286.66;10246929;28;20049;-73
2023/04/16 17:42:39;;;;;;;23.42;15.88;;;;;;;10.26;100.00;102293.47;10306183;27;20616;-73
2023/04/16 17:47:35;;;;;;;19.17;15.10;;;;;;;10.29;100.00;102298.41;10234307;28;20045;-73
2023/04/16 17:52:32;;;;;;;20.30;16.52;;;;;;;10.14;100.00;102301.13;10203768;28;20045;-74
2023/04/16 17:57:29;;;;;;;25.02;18.17;;;;;;;9.83;100.00;102306.66;10226763;28;20068;-73
2023/04/16 18:02:28;;;;;;;23.90;16.15;;;;;;;9.99;100.00;102312.09;10226549;28;20045;-73
2023/04/16 18:07:25;;;;;;;20.25;15.30;;;;;;;9.99;100.00;102325.78;10240743;28;20523;-73
2023/04/16 18:12:21;;;;;;;25.95;16.92;;;;;;;9.97;100.00;102326.03;10247844;28;20053;-73
2023/04/16 18:17:20;;;;;;;19.85;15.07;;;;;;;9.84;100.00;102323.84;10238372;28;20061;-73
2023/04/16 18:22:17;;;;;;;26.98;16.70;;;;;;;9.77;100.00;102335.06;10248141;28;20780;-73
2023/04/16 18:27:13;;;;;;;18.77;15.70;;;;;;;9.77;100.00;102345.16;10248652;28;20137;-73
2023/04/16 18:32:10;;;;;;;21.55;15.63;;;;;;;9.79;100.00;102343.78;10237289;28;20067;-73
2023/04/16 18:37:07;;;;;;;18.75;15.07;;;;;;;9.75;100.00;102345.44;10253418;28;20132;-73
2023/04/16 18:42:04;;;;;;;21.42;17.77;;;;;;;9.62;100.00;102349.53;10242142;28;20052;-73
2023/04/16 18:47:01;;;;;;;18.63;16.40;;;;;;;9.71;100.00;102358.00;10237772;28;20701;-73
2023/04/16 18:51:57;;;;;;;22.48;16.70;;;;;;;9.64;100.00;102357.47;10226743;28;20042;-73
2023/04/16 18:56:54;;;;;;;25.88;17.08;;;;;;;9.65;100.00;102365.38;10211312;28;20771;-73
2023/04/16 19:01:50;;;;;;;22.60;16.92;;;;;;;9.60;100.00;102367.28;10219965;28;20168;-73
2023/04/16 19:06:47;;;;;;;19.55;15.70;;;;;;;9.65;100.00;102380.94;10214142;28;20104;-73
2023/04/16 19:11:43;;;;;;;25.67;18.45;;;;;;;9.63;100.00;102378.50;10220408;28;20570;-73
2023/04/16 19:16:40;;;;;;;20.15;15.90;;;;;;;9.64;100.00;102384.75;10215603;28;20124;-73
2023/04/16 19:21:36;;;;;;;21.63;16.85;;;;;;;9.60;100.00;102383.66;10218292;28;20140;-73
2023/04/16 19:26:33;;;;;;;21.27;17.23;;;;;;;9.62;100.00;102386.94;10219851;28;20407;-73
2023/04/16 19:31:29;;;;;;;23.33;18.38;;;;;;;9.53;100.00;102394.03;10214836;28;20112;-73
2023/04/16 19:36:26;;;;;;;23.73;18.40;;;;;;;9.41;100.00;102397.00;10210551;28;20510;-73
2023/04/16 19:41:23;;;;;;;22.73;16.10;;;;;;;9.45;100.00;102398.09;10216868;28;20087;-73
2023/04/16 19:46:19;;;;;;;22.20;17.52;;;;;;;9.39;100.00;102405.44;10207546;28;20061;-72
2023/04/16 19:51:16;;;;;;;21.23;16.25;;;;;;;9.30;100.00;102414.44;10211755;28;20085;-73
2023/04/16 19:56:14;;;;;;;20.67;16.08;;;;;;;9.31;100.00;102411.44;10206479;28;20046;-74
2023/04/16 20:01:11;;;;;;;21.00;16.05;;;;;;;9.26;100.00;102416.88;10215119;28;20152;-70
2023/04/16 20:06:07;;;;;;;17.55;15.63;;;;;;;9.24;100.00;102408.16;10214881;28;20492;-72
2023/04/16 20:11:04;;;;;;;25.23;16.25;;;;;;;9.21;100.00;102408.66;10218021;28;20056;-69
2023/04/16 20:16:00;;;;;;;25.48;17.13;;;;;;;9.16;100.00;102405.91;10220739;28;20111;-69
2023/04/16 20:21:02;;;;;;;21.67;16.00;;;;;;;9.19;100.00;102416.28;10207955;28;20053;-70
2023/04/16 20:25:58;;;;;;;25.48;17.20;;;;;;;9.15;100.00;102417.94;10209871;28;20401;-69
2023/04/16 20:30:55;;;;;;;23.83;17.73;;;;;;;9.01;100.00;102421.13;10220563;28;20045;-70
2023/04/16 20:35:51;;;;;;;23.88;15.85;;;;;;;9.01;100.00;102420.31;10218148;28;20041;-69
2023/04/16 20:41:08;;;;;;;26.00;17.98;;;;;;;8.88;100.00;102418.88;10215877;28;20074;-69
2023/04/16 20:46:09;;;;;;;22.92;17.17;;;;;;;8.95;100.00;102421.38;10211831;28;20543;-70
2023/04/16 20:51:09;;;;;;;23.33;16.27;;;;;;;8.77;100.00;102419.91;10223842;28;20045;-69
2023/04/16 20:56:07;;;;;;;24.38;16.80;;;;;;;8.87;100.00;102417.25;10214921;28;20419;-69
2023/04/16 21:01:04;;;;;;;19.60;15.95;;;;;;;8.81;100.00;102418.31;10211483;28;21182;-69
2023/04/16 21:06:02;;;;;;;23.98;17.95;;;;;;;8.85;100.00;102430.34;10208328;28;20054;-69
2023/04/16 21:10:58;;;;;;;21.40;16.60;;;;;;;8.63;100.00;102431.31;10222110;28;20518;-69
2023/04/16 21:15:55;;;;;;;24.00;18.40;;;;;;;8.68;100.00;102437.84;10224514;28;20554;-69
2023/04/16 21:20:51;;;;;;;24.13;17.20;;;;;;;8.70;100.00;102430.22;10219402;28;20561;-69
2023/04/16 21:25:48;;;;;;;23.40;17.38;;;;;;;8.78;100.00;102437.94;10217517;28;20557;-70
2023/04/16 21:30:44;;;;;;;20.63;16.52;;;;;;;8.77;100.00;102441.72;10218842;28;20049;-67
2023/04/16 21:35:41;;;;;;;22.48;16.58;;;;;;;8.80;100.00;102441.22;10219613;28;20144;-67
2023/04/16 21:40:37;;;;;;;19.38;15.82;;;;;;;8.85;100.00;102427.59;10221694;28;20062;-68
2023/04/16 21:45:34;;;;;;;21.67;16.73;;;;;;;8.76;100.00;102434.66;10220108;28;20148;-68
2023/04/16 21:50:30;;;;;;;24.08;16.55;;;;;;;8.75;100.00;102432.97;10213709;28;20129;-70
2023/04/16 21:55:27;;;;;;;23.33;17.77;;;;;;;8.66;100.00;102423.66;10216581;28;20103;-69
2023/04/16 22:00:23;;;;;;;22.05;16.48;;;;;;;8.61;100.00;102416.28;10211508;28;20080;-70
2023/04/16 22:05:23;;;;;;;23.73;16.85;;;;;;;8.57;100.00;102426.88;10205534;28;20053;-67
2023/04/16 22:10:19;;;;;;;21.08;15.73;;;;;;;8.56;100.00;102421.69;10212907;28;20052;-68
2023/04/16 22:15:16;;;;;;;25.20;17.50;;;;;;;8.43;100.00;102431.16;10206566;28;20060;-68